sensor_id;sensor_type;location;lat;lon;timestamp;pressure;altitude;pressure_sealevel;temperature;humidity
49729;BME280;66333;49.798;10.968;2023-01-23T00:02:02;99384.66;;;5.62;75.15
49729;BME280;66333;49.798;10.968;2023-01-23T00:04:28;99392.38;;;5.64;74.68
49729;BME280;66333;49.798;10.968;2023-01-23T00:06:55;99383.81;;;5.62;75.11
49729;BME280;66333;49.798;10.968;2023-01-23T00:09:21;99386.50;;;5.60;74.93
49729;BME280;66333;49.798;10.968;2023-01-23T00:11:49;99389.03;;;5.62;75.00
49729;BME280;66333;49.798;10.968;2023-01-23T00:14:16;99383.91;;;5.60;74.96
49729;BME280;66333;49.798;10.968;2023-01-23T00:16:42;99389.13;;;5.60;74.73
49729;BME280;66333;49.798;10.968;2023-01-23T00:19:09;99391.72;;;5.60;75.04
49729;BME280;66333;49.798;10.968;2023-01-23T00:21:35;99385.78;;;5.58;74.78
49729;BME280;66333;49.798;10.968;2023-01-23T00:24:02;99379.66;;;5.59;75.02
49729;BME280;66333;49.798;10.968;2023-01-23T00:26:30;99378.63;;;5.62;74.85
49729;BME280;66333;49.798;10.968;2023-01-23T00:28:59;99389.84;;;5.62;75.18
49729;BME280;66333;49.798;10.968;2023-01-23T00:31:28;99387.44;;;5.59;74.89
49729;BME280;66333;49.798;10.968;2023-01-23T00:33:56;99384.66;;;5.62;74.72
49729;BME280;66333;49.798;10.968;2023-01-23T00:36:23;99388.28;;;5.60;74.81
49729;BME280;66333;49.798;10.968;2023-01-23T00:38:50;99392.56;;;5.61;74.95
49729;BME280;66333;49.798;10.968;2023-01-23T00:41:16;99396.91;;;5.60;74.93
49729;BME280;66333;49.798;10.968;2023-01-23T00:43:43;99393.59;;;5.58;75.05
49729;BME280;66333;49.798;10.968;2023-01-23T00:46:12;99407.41;;;5.59;74.89
49729;BME280;66333;49.798;10.968;2023-01-23T00:48:38;99405.66;;;5.59;74.84
49729;BME280;66333;49.798;10.968;2023-01-23T00:51:05;99418.66;;;5.59;74.95
49729;BME280;66333;49.798;10.968;2023-01-23T00:53:31;99419.56;;;5.58;74.80
49729;BME280;66333;49.798;10.968;2023-01-23T00:55:58;99414.38;;;5.58;74.89
49729;BME280;66333;49.798;10.968;2023-01-23T00:58:24;99410.84;;;5.59;74.63
49729;BME280;66333;49.798;10.968;2023-01-23T01:00:51;99429.97;;;5.58;74.82
49729;BME280;66333;49.798;10.968;2023-01-23T01:03:18;99425.72;;;5.57;74.92
49729;BME280;66333;49.798;10.968;2023-01-23T01:05:46;99421.25;;;5.59;74.95
49729;BME280;66333;49.798;10.968;2023-01-23T01:08:12;99435.34;;;5.55;74.65
49729;BME280;66333;49.798;10.968;2023-01-23T01:10:39;99440.38;;;5.58;74.90
49729;BME280;66333;49.798;10.968;2023-01-23T01:13:06;99440.38;;;5.58;75.00
49729;BME280;66333;49.798;10.968;2023-01-23T01:15:32;99442.25;;;5.56;74.84
49729;BME280;66333;49.798;10.968;2023-01-23T01:17:59;99442.25;;;5.56;74.98
49729;BME280;66333;49.798;10.968;2023-01-23T01:20:27;99443.06;;;5.57;75.00
49729;BME280;66333;49.798;10.968;2023-01-23T01:22:55;99447.44;;;5.56;74.66
49729;BME280;66333;49.798;10.968;2023-01-23T01:25:21;99451.72;;;5.57;74.66
49729;BME280;66333;49.798;10.968;2023-01-23T01:27:48;99445.56;;;5.58;74.75
49729;BME280;66333;49.798;10.968;2023-01-23T01:30:15;99448.91;;;5.60;74.58
49729;BME280;66333;49.798;10.968;2023-01-23T01:32:42;99445.56;;;5.58;75.00
49729;BME280;66333;49.798;10.968;2023-01-23T01:35:09;99445.56;;;5.58;74.78
49729;BME280;66333;49.798;10.968;2023-01-23T01:37:39;99447.44;;;5.56;74.79
49729;BME280;66333;49.798;10.968;2023-01-23T01:40:10;99449.19;;;5.56;75.01
49729;BME280;66333;49.798;10.968;2023-01-23T01:42:38;99461.34;;;5.55;74.89
49729;BME280;66333;49.798;10.968;2023-01-23T01:45:06;99455.31;;;5.55;75.09
49729;BME280;66333;49.798;10.968;2023-01-23T01:47:32;99452.63;;;5.56;75.12
49729;BME280;66333;49.798;10.968;2023-01-23T01:50:02;99450.94;;;5.55;74.90
49729;BME280;66333;49.798;10.968;2023-01-23T01:52:29;99450.94;;;5.55;75.10
49729;BME280;66333;49.798;10.968;2023-01-23T01:55:00;99455.25;;;5.56;74.96
49729;BME280;66333;49.798;10.968;2023-01-23T01:57:29;99458.56;;;5.58;74.76
49729;BME280;66333;49.798;10.968;2023-01-23T02:00:00;99459.50;;;5.57;75.01
49729;BME280;66333;49.798;10.968;2023-01-23T02:02:31;99463.03;;;5.56;74.80
49729;BME280;66333;49.798;10.968;2023-01-23T02:05:00;99463.03;;;5.56;74.90
49729;BME280;66333;49.798;10.968;2023-01-23T02:07:31;99470.84;;;5.56;74.93
49729;BME280;66333;49.798;10.968;2023-01-23T02:10:02;99465.69;;;5.55;74.85
49729;BME280;66333;49.798;10.968;2023-01-23T02:12:29;99458.00;;;5.53;74.86
49729;BME280;66333;49.798;10.968;2023-01-23T02:14:56;99464.88;;;5.54;74.76
49729;BME280;66333;49.798;10.968;2023-01-23T02:17:23;99476.03;;;5.56;75.10
49729;BME280;66333;49.798;10.968;2023-01-23T02:19:53;99468.25;;;5.56;75.00
49729;BME280;66333;49.798;10.968;2023-01-23T02:22:29;99470.06;;;5.54;74.90
49729;BME280;66333;49.798;10.968;2023-01-23T02:24:59;99469.91;;;5.57;74.78
49729;BME280;66333;49.798;10.968;2023-01-23T02:27:29;99474.44;;;5.54;74.99
49729;BME280;66333;49.798;10.968;2023-01-23T02:29:56;99479.53;;;5.55;74.99
49729;BME280;66333;49.798;10.968;2023-01-23T02:32:22;99470.91;;;5.55;75.07
49729;BME280;66333;49.798;10.968;2023-01-23T02:34:50;99477.81;;;5.56;74.89
49729;BME280;66333;49.798;10.968;2023-01-23T02:37:17;99478.78;;;5.53;74.87
49729;BME280;66333;49.798;10.968;2023-01-23T02:39:44;99485.66;;;5.54;75.02
49729;BME280;66333;49.798;10.968;2023-01-23T02:42:12;99489.19;;;5.53;75.01
49729;BME280;66333;49.798;10.968;2023-01-23T02:44:40;99481.50;;;5.52;75.12
49729;BME280;66333;49.798;10.968;2023-01-23T02:47:07;99478.78;;;5.53;75.28
49729;BME280;66333;49.798;10.968;2023-01-23T02:49:36;99475.34;;;5.53;75.09
49729;BME280;66333;49.798;10.968;2023-01-23T02:52:04;99470.06;;;5.54;75.02
49729;BME280;66333;49.798;10.968;2023-01-23T02:54:31;99473.59;;;5.53;75.14
49729;BME280;66333;49.798;10.968;2023-01-23T02:56:57;99471.94;;;5.52;74.77
49729;BME280;66333;49.798;10.968;2023-01-23T02:59:24;99466.72;;;5.52;75.22
49729;BME280;66333;49.798;10.968;2023-01-23T03:02:10;99473.59;;;5.53;74.85
49729;BME280;66333;49.798;10.968;2023-01-23T03:04:37;99471.19;;;5.50;75.08
49729;BME280;66333;49.798;10.968;2023-01-23T03:07:03;99475.47;;;5.51;75.20
49729;BME280;66333;49.798;10.968;2023-01-23T03:09:29;99462.47;;;5.51;74.90
49729;BME280;66333;49.798;10.968;2023-01-23T03:11:56;99473.59;;;5.53;75.03
49729;BME280;66333;49.798;10.968;2023-01-23T03:14:23;99476.28;;;5.52;74.97
49729;BME280;66333;49.798;10.968;2023-01-23T03:16:50;99471.94;;;5.52;75.12
49729;BME280;66333;49.798;10.968;2023-01-23T03:19:21;99468.41;;;5.53;75.22
49729;BME280;66333;49.798;10.968;2023-01-23T03:21:48;99470.25;;;5.51;74.87
49729;BME280;66333;49.798;10.968;2023-01-23T03:24:15;99470.16;;;5.53;74.77
49729;BME280;66333;49.798;10.968;2023-01-23T03:26:44;99465.06;;;5.51;74.88
49729;BME280;66333;49.798;10.968;2023-01-23T03:29:14;99469.44;;;5.51;74.85
49729;BME280;66333;49.798;10.968;2023-01-23T03:31:59;99453.00;;;5.50;75.15
49729;BME280;66333;49.798;10.968;2023-01-23T03:34:27;99465.06;;;5.51;74.88
49729;BME280;66333;49.798;10.968;2023-01-23T03:36:54;99459.88;;;5.51;74.99
49729;BME280;66333;49.798;10.968;2023-01-23T03:39:20;99451.31;;;5.49;75.06
49729;BME280;66333;49.798;10.968;2023-01-23T03:42:04;99456.53;;;5.49;74.98
49729;BME280;66333;49.798;10.968;2023-01-23T03:44:30;99447.91;;;5.49;74.89
49729;BME280;66333;49.798;10.968;2023-01-23T03:46:57;99446.13;;;5.49;74.97
49729;BME280;66333;49.798;10.968;2023-01-23T03:49:24;99448.00;;;5.47;74.94
49729;BME280;66333;49.798;10.968;2023-01-23T03:51:52;99446.13;;;5.49;75.10
49729;BME280;66333;49.798;10.968;2023-01-23T03:54:18;99449.47;;;5.51;75.06
49729;BME280;66333;49.798;10.968;2023-01-23T03:56:44;99453.00;;;5.50;74.82
49729;BME280;66333;49.798;10.968;2023-01-23T03:59:11;99466.91;;;5.49;75.16
49729;BME280;66333;49.798;10.968;2023-01-23T04:01:37;99453.00;;;5.50;74.81
49729;BME280;66333;49.798;10.968;2023-01-23T04:04:04;99461.72;;;5.49;75.17
49729;BME280;66333;49.798;10.968;2023-01-23T04:06:31;99464.22;;;5.51;74.77
49729;BME280;66333;49.798;10.968;2023-01-23T04:08:58;99465.25;;;5.48;75.09
49729;BME280;66333;49.798;10.968;2023-01-23T04:11:25;99468.59;;;5.50;75.07
49729;BME280;66333;49.798;10.968;2023-01-23T04:13:52;99472.03;;;5.51;74.98
49729;BME280;66333;49.798;10.968;2023-01-23T04:16:19;99471.19;;;5.50;74.94
49729;BME280;66333;49.798;10.968;2023-01-23T04:18:46;99467.91;;;5.47;74.92
49729;BME280;66333;49.798;10.968;2023-01-23T04:21:12;99477.47;;;5.46;75.21
49729;BME280;66333;49.798;10.968;2023-01-23T04:23:39;99483.34;;;5.50;74.98
49729;BME280;66333;49.798;10.968;2023-01-23T04:26:07;99484.19;;;5.50;74.75
49729;BME280;66333;49.798;10.968;2023-01-23T04:28:33;99486.03;;;5.48;74.89
49729;BME280;66333;49.798;10.968;2023-01-23T04:31:00;99480.84;;;5.48;75.03
49729;BME280;66333;49.798;10.968;2023-01-23T04:33:26;99493.66;;;5.51;74.90
49729;BME280;66333;49.798;10.968;2023-01-23T04:35:54;99487.72;;;5.49;74.67
49729;BME280;66333;49.798;10.968;2023-01-23T04:38:21;99489.56;;;5.47;75.16
49729;BME280;66333;49.798;10.968;2023-01-23T04:40:48;99499.97;;;5.47;74.95
49729;BME280;66333;49.798;10.968;2023-01-23T04:43:17;99502.56;;;5.47;74.85
49729;BME280;66333;49.798;10.968;2023-01-23T04:45:44;99508.50;;;5.49;74.90
49729;BME280;66333;49.798;10.968;2023-01-23T04:48:11;99505.06;;;5.49;74.81
49729;BME280;66333;49.798;10.968;2023-01-23T04:50:38;99513.72;;;5.49;74.80
49729;BME280;66333;49.798;10.968;2023-01-23T04:53:05;99515.38;;;5.50;74.78
49729;BME280;66333;49.798;10.968;2023-01-23T04:55:32;99504.97;;;5.50;75.05
49729;BME280;66333;49.798;10.968;2023-01-23T04:57:59;99512.03;;;5.48;75.12
49729;BME280;66333;49.798;10.968;2023-01-23T05:00:28;99517.25;;;5.48;74.96
49729;BME280;66333;49.798;10.968;2023-01-23T05:02:55;99512.19;;;5.45;74.84
49729;BME280;66333;49.798;10.968;2023-01-23T05:05:21;99512.88;;;5.49;74.72
49729;BME280;66333;49.798;10.968;2023-01-23T05:07:48;99520.78;;;5.47;75.08
49729;BME280;66333;49.798;10.968;2023-01-23T05:10:15;99527.69;;;5.47;74.96
49729;BME280;66333;49.798;10.968;2023-01-23T05:12:42;99516.47;;;5.46;74.75
49729;BME280;66333;49.798;10.968;2023-01-23T05:15:09;99518.31;;;5.44;74.98
49729;BME280;66333;49.798;10.968;2023-01-23T05:17:37;99517.41;;;5.45;74.68
49729;BME280;66333;49.798;10.968;2023-01-23T05:20:05;99517.41;;;5.45;74.77
49729;BME280;66333;49.798;10.968;2023-01-23T05:22:32;99524.25;;;5.46;74.91
49729;BME280;66333;49.798;10.968;2023-01-23T05:24:59;99524.44;;;5.43;74.89
49729;BME280;66333;49.798;10.968;2023-01-23T05:27:25;99526.88;;;5.46;74.72
49729;BME280;66333;49.798;10.968;2023-01-23T05:29:52;99522.59;;;5.45;74.92
49729;BME280;66333;49.798;10.968;2023-01-23T05:32:18;99534.50;;;5.49;74.84
49729;BME280;66333;49.798;10.968;2023-01-23T05:34:46;99535.44;;;5.48;74.90
49729;BME280;66333;49.798;10.968;2023-01-23T05:37:12;99532.84;;;5.48;74.90
49729;BME280;66333;49.798;10.968;2023-01-23T05:39:39;99534.50;;;5.49;74.88
49729;BME280;66333;49.798;10.968;2023-01-23T05:42:05;99540.63;;;5.48;74.76
49729;BME280;66333;49.798;10.968;2023-01-23T05:44:32;99549.44;;;5.46;75.06
49729;BME280;66333;49.798;10.968;2023-01-23T05:46:58;99544.22;;;5.46;74.87
49729;BME280;66333;49.798;10.968;2023-01-23T05:49:24;99546.91;;;5.44;75.15
49729;BME280;66333;49.798;10.968;2023-01-23T05:51:52;99552.03;;;5.46;74.76
49729;BME280;66333;49.798;10.968;2023-01-23T05:54:19;99548.59;;;5.45;75.17
49729;BME280;66333;49.798;10.968;2023-01-23T05:56:45;99549.50;;;5.44;74.95
49729;BME280;66333;49.798;10.968;2023-01-23T05:59:11;99551.97;;;5.47;74.88
49729;BME280;66333;49.798;10.968;2023-01-23T06:01:38;99550.84;;;5.21;71.48
49729;BME280;66333;49.798;10.968;2023-01-23T06:04:04;99554.00;;;5.26;72.20
49729;BME280;66333;49.798;10.968;2023-01-23T06:06:31;99561.72;;;5.28;73.10
49729;BME280;66333;49.798;10.968;2023-01-23T06:08:59;99565.97;;;5.29;73.41
49729;BME280;66333;49.798;10.968;2023-01-23T06:11:25;99569.16;;;5.34;73.58
49729;BME280;66333;49.798;10.968;2023-01-23T06:13:52;99579.50;;;5.20;71.36
49729;BME280;66333;49.798;10.968;2023-01-23T06:16:18;99584.22;;;4.81;69.64
49729;BME280;66333;49.798;10.968;2023-01-23T06:18:44;99581.53;;;4.83;70.41
49729;BME280;66333;49.798;10.968;2023-01-23T06:21:11;99590.50;;;4.93;71.29
49729;BME280;66333;49.798;10.968;2023-01-23T06:23:37;99596.09;;;5.01;71.66
49729;BME280;66333;49.798;10.968;2023-01-23T06:26:05;99597.63;;;5.05;71.90
49729;BME280;66333;49.798;10.968;2023-01-23T06:28:32;99604.22;;;5.11;71.62
49729;BME280;66333;49.798;10.968;2023-01-23T06:31:00;99606.66;;;5.14;71.97
49729;BME280;66333;49.798;10.968;2023-01-23T06:33:28;99599.53;;;5.18;72.52
49729;BME280;66333;49.798;10.968;2023-01-23T06:35:57;99607.31;;;5.18;72.77
49729;BME280;66333;49.798;10.968;2023-01-23T06:38:24;99611.59;;;5.19;72.86
49729;BME280;66333;49.798;10.968;2023-01-23T06:40:50;99614.19;;;5.19;73.07
49729;BME280;66333;49.798;10.968;2023-01-23T06:43:19;99621.06;;;5.20;73.24
49729;BME280;66333;49.798;10.968;2023-01-23T06:45:46;99623.59;;;5.21;73.02
49729;BME280;66333;49.798;10.968;2023-01-23T06:48:12;99626.25;;;5.20;73.21
49729;BME280;66333;49.798;10.968;2023-01-23T06:50:40;99631.31;;;5.23;73.50
49729;BME280;66333;49.798;10.968;2023-01-23T06:53:07;99634.06;;;5.20;73.62
49729;BME280;66333;49.798;10.968;2023-01-23T06:55:34;99634.00;;;5.21;73.61
49729;BME280;66333;49.798;10.968;2023-01-23T06:58:01;99638.19;;;5.24;73.31
49729;BME280;66333;49.798;10.968;2023-01-23T07:00:28;99633.81;;;5.24;73.83
49729;BME280;66333;49.798;10.968;2023-01-23T07:02:55;99637.25;;;5.25;73.66
49729;BME280;66333;49.798;10.968;2023-01-23T07:05:24;99634.66;;;5.25;73.51
49729;BME280;66333;49.798;10.968;2023-01-23T07:07:50;99643.38;;;5.24;73.97
49729;BME280;66333;49.798;10.968;2023-01-23T07:10:17;99640.59;;;5.27;73.54
49729;BME280;66333;49.798;10.968;2023-01-23T07:12:43;99645.69;;;5.28;73.92
49729;BME280;66333;49.798;10.968;2023-01-23T07:15:10;99645.03;;;5.25;73.79
49729;BME280;66333;49.798;10.968;2023-01-23T07:17:38;99659.53;;;5.29;73.63
49729;BME280;66333;49.798;10.968;2023-01-23T07:20:05;99657.94;;;5.26;73.55
49729;BME280;66333;49.798;10.968;2023-01-23T07:22:32;99658.63;;;5.30;73.99
49729;BME280;66333;49.798;10.968;2023-01-23T07:24:59;99665.66;;;5.28;73.93
49729;BME280;66333;49.798;10.968;2023-01-23T07:27:25;99663.97;;;5.27;74.05
49729;BME280;66333;49.798;10.968;2023-01-23T07:29:52;99667.31;;;5.29;74.02
49729;BME280;66333;49.798;10.968;2023-01-23T07:32:18;99663.97;;;5.27;74.11
49729;BME280;66333;49.798;10.968;2023-01-23T07:34:46;99665.66;;;5.28;73.92
49729;BME280;66333;49.798;10.968;2023-01-23T07:37:12;99665.66;;;5.28;74.03
49729;BME280;66333;49.798;10.968;2023-01-23T07:39:39;99665.66;;;5.28;73.91
49729;BME280;66333;49.798;10.968;2023-01-23T07:42:05;99661.28;;;5.28;74.11
49729;BME280;66333;49.798;10.968;2023-01-23T07:44:32;99659.53;;;5.29;74.03
49729;BME280;66333;49.798;10.968;2023-01-23T07:46:58;99664.81;;;5.27;74.16
49729;BME280;66333;49.798;10.968;2023-01-23T07:49:24;99666.50;;;5.28;74.16
49729;BME280;66333;49.798;10.968;2023-01-23T07:51:52;99669.34;;;5.24;74.43
49729;BME280;66333;49.798;10.968;2023-01-23T07:54:19;99671.03;;;5.25;74.22
49729;BME280;66333;49.798;10.968;2023-01-23T07:56:47;99663.97;;;5.27;74.22
49729;BME280;66333;49.798;10.968;2023-01-23T07:59:14;99667.50;;;5.26;74.25
49729;BME280;66333;49.798;10.968;2023-01-23T08:01:40;99663.16;;;5.26;74.25
49729;BME280;66333;49.798;10.968;2023-01-23T08:04:07;99678.81;;;5.25;74.10
49729;BME280;66333;49.798;10.968;2023-01-23T08:06:33;99672.88;;;5.23;74.17
49729;BME280;66333;49.798;10.968;2023-01-23T08:09:02;99676.41;;;5.22;74.18
49729;BME280;66333;49.798;10.968;2023-01-23T08:11:28;99681.59;;;5.22;74.31
49729;BME280;66333;49.798;10.968;2023-01-23T08:13:55;99682.34;;;5.24;74.03
49729;BME280;66333;49.798;10.968;2023-01-23T08:16:21;99675.56;;;5.21;74.48
49729;BME280;66333;49.798;10.968;2023-01-23T08:18:48;99677.25;;;5.22;74.17
49729;BME280;66333;49.798;10.968;2023-01-23T08:21:15;99675.38;;;5.24;74.45
49729;BME280;66333;49.798;10.968;2023-01-23T08:23:41;99671.22;;;5.22;74.32
49729;BME280;66333;49.798;10.968;2023-01-23T08:26:12;99683.28;;;5.23;74.25
49729;BME280;66333;49.798;10.968;2023-01-23T08:28:39;99676.41;;;5.22;74.46
49729;BME280;66333;49.798;10.968;2023-01-23T08:31:08;99686.72;;;5.23;74.28
49729;BME280;66333;49.798;10.968;2023-01-23T08:33:36;99678.81;;;5.25;74.28
49729;BME280;66333;49.798;10.968;2023-01-23T08:36:04;99679.00;;;5.22;74.57
49729;BME280;66333;49.798;10.968;2023-01-23T08:38:31;99676.41;;;5.22;74.39
49729;BME280;66333;49.798;10.968;2023-01-23T08:40:59;99664.16;;;5.24;74.01
49729;BME280;66333;49.798;10.968;2023-01-23T08:43:27;99670.09;;;5.26;74.24
49729;BME280;66333;49.798;10.968;2023-01-23T08:45:56;99665.09;;;5.23;74.11
49729;BME280;66333;49.798;10.968;2023-01-23T08:48:24;99663.22;;;5.25;74.39
49729;BME280;66333;49.798;10.968;2023-01-23T08:50:56;99663.16;;;5.26;74.50
49729;BME280;66333;49.798;10.968;2023-01-23T08:53:23;99659.78;;;5.24;74.10
49729;BME280;66333;49.798;10.968;2023-01-23T08:55:49;99660.63;;;5.25;74.19
49729;BME280;66333;49.798;10.968;2023-01-23T08:58:16;99659.63;;;5.27;74.28
49729;BME280;66333;49.798;10.968;2023-01-23T09:00:44;99662.31;;;5.26;74.28
49729;BME280;66333;49.798;10.968;2023-01-23T09:03:10;99667.41;;;5.27;74.36
49729;BME280;66333;49.798;10.968;2023-01-23T09:05:36;99652.56;;;5.29;74.22
49729;BME280;66333;49.798;10.968;2023-01-23T09:08:03;99662.13;;;5.29;74.34
49729;BME280;66333;49.798;10.968;2023-01-23T09:10:30;99656.09;;;5.28;74.13
49729;BME280;66333;49.798;10.968;2023-01-23T09:12:56;99662.31;;;5.26;74.28
49729;BME280;66333;49.798;10.968;2023-01-23T09:15:23;99663.97;;;5.27;74.41
49729;BME280;66333;49.798;10.968;2023-01-23T09:17:51;99668.09;;;5.31;74.04
49729;BME280;66333;49.798;10.968;2023-01-23T09:20:17;99667.50;;;5.26;74.32
49729;BME280;66333;49.798;10.968;2023-01-23T09:22:44;99671.78;;;5.27;74.31
49729;BME280;66333;49.798;10.968;2023-01-23T09:25:11;99665.66;;;5.28;74.59
49729;BME280;66333;49.798;10.968;2023-01-23T09:27:38;99670.00;;;5.27;74.41
49729;BME280;66333;49.798;10.968;2023-01-23T09:30:06;99665.66;;;5.28;74.36
49729;BME280;66333;49.798;10.968;2023-01-23T09:32:32;99665.50;;;5.31;74.29
49729;BME280;66333;49.798;10.968;2023-01-23T09:35:00;99682.91;;;5.29;74.22
49729;BME280;66333;49.798;10.968;2023-01-23T09:37:28;99678.66;;;5.28;74.66
49729;BME280;66333;49.798;10.968;2023-01-23T09:40:16;99671.78;;;5.27;74.18
49729;BME280;66333;49.798;10.968;2023-01-23T09:42:44;99674.22;;;5.30;74.37
49729;BME280;66333;49.798;10.968;2023-01-23T09:45:15;99677.66;;;5.30;74.09
49729;BME280;66333;49.798;10.968;2023-01-23T09:47:45;99675.94;;;5.29;74.20
49729;BME280;66333;49.798;10.968;2023-01-23T09:50:19;99665.50;;;5.31;74.34
49729;BME280;66333;49.798;10.968;2023-01-23T09:52:51;99661.97;;;5.32;74.43
49729;BME280;66333;49.798;10.968;2023-01-23T09:55:24;99668.00;;;5.32;74.29
49729;BME280;66333;49.798;10.968;2023-01-23T09:57:56;99671.25;;;5.36;74.42
49729;BME280;66333;49.798;10.968;2023-01-23T10:00:25;99675.53;;;5.37;73.94
49729;BME280;66333;49.798;10.968;2023-01-23T10:02:54;99662.72;;;5.34;73.99
49729;BME280;66333;49.798;10.968;2023-01-23T10:05:27;99670.44;;;5.35;74.05
49729;BME280;66333;49.798;10.968;2023-01-23T10:08:04;99673.88;;;5.36;74.17
49729;BME280;66333;49.798;10.968;2023-01-23T10:10:52;99672.94;;;5.37;74.22
49729;BME280;66333;49.798;10.968;2023-01-23T10:13:30;99659.94;;;5.37;74.27
49729;BME280;66333;49.798;10.968;2023-01-23T10:16:24;99674.63;;;5.38;74.20
49729;BME280;66333;49.798;10.968;2023-01-23T10:19:03;99665.13;;;5.37;74.25
49729;BME280;66333;49.798;10.968;2023-01-23T10:21:37;99678.06;;;5.38;74.22
49729;BME280;66333;49.798;10.968;2023-01-23T10:24:22;99668.50;;;5.39;74.38
49729;BME280;66333;49.798;10.968;2023-01-23T10:26:54;99667.59;;;5.40;74.16
49729;BME280;66333;49.798;10.968;2023-01-23T10:29:27;99665.00;;;5.40;74.03
49729;BME280;66333;49.798;10.968;2023-01-23T10:31:57;99663.13;;;5.42;74.30
49729;BME280;66333;49.798;10.968;2023-01-23T10:34:27;99657.94;;;5.42;74.25
49729;BME280;66333;49.798;10.968;2023-01-23T10:37:10;99661.28;;;5.44;73.93
49729;BME280;66333;49.798;10.968;2023-01-23T10:39:46;99661.28;;;5.44;73.99
49729;BME280;66333;49.798;10.968;2023-01-23T10:42:17;99654.41;;;5.43;74.08
49729;BME280;66333;49.798;10.968;2023-01-23T10:44:46;99653.50;;;5.44;74.16
49729;BME280;66333;49.798;10.968;2023-01-23T10:47:17;99654.41;;;5.43;74.19
49729;BME280;66333;49.798;10.968;2023-01-23T10:49:45;99644.75;;;5.45;74.00
49729;BME280;66333;49.798;10.968;2023-01-23T10:55:27;99655.06;;;5.47;74.11
49729;BME280;66333;49.798;10.968;2023-01-23T10:57:56;99654.31;;;5.45;73.88
49729;BME280;66333;49.798;10.968;2023-01-23T11:00:26;99650.75;;;5.47;74.07
49729;BME280;66333;49.798;10.968;2023-01-23T11:02:55;99658.53;;;5.47;74.06
49729;BME280;66333;49.798;10.968;2023-01-23T11:05:42;99655.94;;;5.47;74.01
49729;BME280;66333;49.798;10.968;2023-01-23T11:08:22;99653.34;;;5.47;74.06
49729;BME280;66333;49.798;10.968;2023-01-23T11:10:50;99655.94;;;5.47;74.19
49729;BME280;66333;49.798;10.968;2023-01-23T11:13:27;99653.16;;;5.50;73.85
49729;BME280;66333;49.798;10.968;2023-01-23T11:15:54;99655.75;;;5.50;73.62
49729;BME280;66333;49.798;10.968;2023-01-23T11:18:29;99656.59;;;5.51;73.88
49729;BME280;66333;49.798;10.968;2023-01-23T11:20:56;99647.03;;;5.51;73.98
49729;BME280;66333;49.798;10.968;2023-01-23T11:23:22;99637.38;;;5.53;73.74
49729;BME280;66333;49.798;10.968;2023-01-23T11:25:52;99643.31;;;5.55;73.71
49729;BME280;66333;49.798;10.968;2023-01-23T11:28:21;99644.25;;;5.54;73.89
49729;BME280;66333;49.798;10.968;2023-01-23T11:30:53;99641.50;;;5.57;73.63
49729;BME280;66333;49.798;10.968;2023-01-23T11:33:33;99637.97;;;5.58;73.57
49729;BME280;66333;49.798;10.968;2023-01-23T11:36:06;99636.09;;;5.60;73.62
49729;BME280;66333;49.798;10.968;2023-01-23T11:38:39;99634.44;;;5.59;73.79
49729;BME280;66333;49.798;10.968;2023-01-23T11:41:10;99630.72;;;5.63;73.54
49729;BME280;66333;49.798;10.968;2023-01-23T11:43:37;99635.91;;;5.63;73.56
49729;BME280;66333;49.798;10.968;2023-01-23T11:46:14;99614.28;;;5.63;73.76
49729;BME280;66333;49.798;10.968;2023-01-23T11:48:55;99614.22;;;5.64;73.58
49729;BME280;66333;49.798;10.968;2023-01-23T11:51:31;99602.88;;;5.65;73.72
49729;BME280;66333;49.798;10.968;2023-01-23T11:54:13;99602.72;;;5.69;73.53
49729;BME280;66333;49.798;10.968;2023-01-23T11:56:56;99604.56;;;5.66;73.58
49729;BME280;66333;49.798;10.968;2023-01-23T11:59:39;99612.19;;;5.70;73.67
49729;BME280;66333;49.798;10.968;2023-01-23T12:05:44;99604.22;;;5.73;73.56
49729;BME280;66333;49.798;10.968;2023-01-23T12:08:22;99607.72;;;5.72;73.67
49729;BME280;66333;49.798;10.968;2023-01-23T12:10:58;99596.31;;;5.74;73.66
49729;BME280;66333;49.798;10.968;2023-01-23T12:13:46;99597.16;;;5.75;73.40
49729;BME280;66333;49.798;10.968;2023-01-23T12:16:20;99593.63;;;5.76;73.63
49729;BME280;66333;49.798;10.968;2023-01-23T12:19:05;99586.75;;;5.75;73.58
49729;BME280;66333;49.798;10.968;2023-01-23T12:21:41;99585.81;;;5.76;73.45
49729;BME280;66333;49.798;10.968;2023-01-23T12:24:16;99583.22;;;5.76;73.61
49729;BME280;66333;49.798;10.968;2023-01-23T12:26:57;99571.16;;;5.75;73.46
49729;BME280;66333;49.798;10.968;2023-01-23T12:29:59;99570.22;;;5.76;73.15
49729;BME280;66333;49.798;10.968;2023-01-23T12:32:38;99564.81;;;5.79;73.25
49729;BME280;66333;49.798;10.968;2023-01-23T12:35:21;99567.44;;;5.79;73.24
49729;BME280;66333;49.798;10.968;2023-01-23T12:38:04;99564.72;;;5.80;73.35
49729;BME280;66333;49.798;10.968;2023-01-23T12:40:38;99544.75;;;5.81;73.51
49729;BME280;66333;49.798;10.968;2023-01-23T12:43:10;99548.13;;;5.83;73.31
49729;BME280;66333;49.798;10.968;2023-01-23T12:45:43;99548.97;;;5.83;73.17
49729;BME280;66333;49.798;10.968;2023-01-23T12:48:15;99551.47;;;5.85;73.23
49729;BME280;66333;49.798;10.968;2023-01-23T12:50:46;99547.94;;;5.86;73.26
49729;BME280;66333;49.798;10.968;2023-01-23T12:53:16;99546.28;;;5.85;73.21
49729;BME280;66333;49.798;10.968;2023-01-23T12:55:55;99546.06;;;5.88;73.28
49729;BME280;66333;49.798;10.968;2023-01-23T12:58:24;99551.28;;;5.88;73.28
49729;BME280;66333;49.798;10.968;2023-01-23T13:01:00;99539.03;;;5.90;72.97
49729;BME280;66333;49.798;10.968;2023-01-23T13:04:05;99536.50;;;5.88;73.54
49729;BME280;66333;49.798;10.968;2023-01-23T13:06:49;99538.06;;;5.92;73.20
49729;BME280;66333;49.798;10.968;2023-01-23T13:09:26;99535.53;;;5.91;73.19
49729;BME280;66333;49.798;10.968;2023-01-23T13:12:04;99543.16;;;5.94;73.28
49729;BME280;66333;49.798;10.968;2023-01-23T13:14:37;99528.47;;;5.93;73.28
49729;BME280;66333;49.798;10.968;2023-01-23T13:17:36;99530.16;;;5.94;73.23
49729;BME280;66333;49.798;10.968;2023-01-23T13:20:23;99529.22;;;5.95;73.07